Portada
METAR-TAF:

METAR-TAF

Aeroports :

Koror, Babeldaob, Palau

latitud: 07-22N, longitud: 134-32E, altitud: 54 m

Observació

L'informe es va fer fa 35 minuts, a les 15:50 UTC
Vent 6 kt del Sud
Temperatura 26°C
Humitat 89%
Pressió 1012 hPa
Visibilitat: 22.5 km
Núvols disperses a una alçada de 1600 ft
Cel ennuvolat a una alçada de 11000 ft
Cel ennuvolat a una alçada de 29000 ft

METAR: PTRO 271550Z 17006KT 14SM SCT016 BKN110 BKN290 26/24 A2989

Hora: 01:25 (16:25 UTC)

Pronòstic

L'informe es va fer fa 5 hores i 5 minuts, a les 11:20 UTC
Pronòstic vàlid del 27 a les 12 UTC al 28 a les 12 UTC
Vent 9 kt del Est/Nord-Est
Visibilitat: 10 km
Núvols disperses a una alçada de 1500 ft
Cel ennuvolat a una alçada de 12000 ft
xàfecs en les proximitats
Temporalment
l' 27 a les 12 UTC al 27 a les 16 UTC
Visibilitat: 4.8 km
Cel ennuvolat a una alçada de 1500 ft
Cel cobert a una alçada de 4000 ft
xàfecs de pluja

TAF: PTRO 271120Z 2712/2812 07009KT P6SM VCSH SCT015 BKN120 TEMPO 2712/2716 3SM SHRA BKN015 OVC040

Observacions i pronòstics meteorològics de més de 4000 aeroports (METAR i TAF).

Les estacions disponibles són els punts grocs i vermells al mapa.

Posi el ratolí al punt desitjat per veure el nom de l'estació.

Feu clic per veure les observacions i els pronòstics meteorològics.

Per canviar el mapa: feu clic els botons verds amb una creu de color negre per apropar; al botó verd amb un guió per allunyar la imatge; o en les fletxes verdes per a mapes adjacents.


METAR-TAF: